Time;durP1;ratioP1;P1;durP2;ratioP2;P2;SDS_P1;SDS_P2;PMS_P1;PMS_P2;Temp;Humidity;BMP_temperature;BMP_pressure;BME280_temperature;BME280_humidity;BME280_pressure;Samples;Min_cycle;Max_cycle;Signal;HPM_P1;HPM_P2
2023/10/18 00:01:04;;;;;;;6.63;6.03;;;5.50;99.90;;;;;;5039338;28;20204;-75
2023/10/18 00:03:32;;;;;;;5.68;4.75;;;5.50;99.90;;;;;;5039519;28;20215;-75
2023/10/18 00:06:11;;;;;;;6.93;6.28;;;5.50;99.90;;;;;;5038996;28;20200;-75
2023/10/18 00:08:38;;;;;;;7.10;5.95;;;5.50;99.90;;;;;;5039272;28;20208;-75
2023/10/18 00:11:05;;;;;;;8.25;7.10;;;5.40;99.90;;;;;;5038721;28;20203;-75
2023/10/18 00:13:33;;;;;;;7.13;5.57;;;5.40;99.90;;;;;;5039393;28;20203;-75
2023/10/18 00:16:01;;;;;;;8.07;5.30;;;5.40;99.90;;;;;;5039696;28;20719;-75
2023/10/18 00:18:28;;;;;;;8.60;6.20;;;5.40;99.90;;;;;;5038874;28;20239;-75
2023/10/18 00:21:04;;;;;;;6.75;6.10;;;5.30;99.90;;;;;;5039305;28;20208;-75
2023/10/18 00:23:32;;;;;;;6.90;6.20;;;5.30;99.90;;;;;;5038075;28;20281;-75
2023/10/18 00:26:04;;;;;;;9.10;6.65;;;5.30;99.90;;;;;;5038977;28;21623;-75
2023/10/18 00:28:31;;;;;;;8.25;6.75;;;5.20;99.90;;;;;;5038774;28;20284;-75
2023/10/18 00:30:59;;;;;;;8.25;5.55;;;5.20;99.90;;;;;;5038693;28;20209;-75
2023/10/18 00:33:26;;;;;;;6.85;6.15;;;5.20;99.90;;;;;;5039064;28;20200;-75
2023/10/18 00:35:57;;;;;;;6.13;5.28;;;5.20;99.90;;;;;;5038066;28;21587;-74
2023/10/18 00:38:25;;;;;;;8.35;6.25;;;5.10;99.90;;;;;;5038410;28;20652;-75
2023/10/18 00:40:52;;;;;;;10.43;6.47;;;5.00;99.90;;;;;;5038739;28;20203;-75
2023/10/18 00:43:21;;;;;;;5.65;5.05;;;5.00;99.90;;;;;;5038977;28;20216;-75
2023/10/18 00:45:50;;;;;;;8.80;5.80;;;5.00;99.90;;;;;;5038461;28;20204;-75
2023/10/18 00:48:19;;;;;;;9.38;6.75;;;5.00;99.90;;;;;;5037824;28;20222;-75
2023/10/18 00:50:48;;;;;;;7.82;6.45;;;5.00;99.90;;;;;;5038104;28;20213;-75
2023/10/18 00:53:19;;;;;;;6.07;5.53;;;5.00;99.90;;;;;;5038786;28;20200;-75
2023/10/18 00:55:52;;;;;;;7.72;6.65;;;5.00;99.90;;;;;;5038263;28;20574;-72
2023/10/18 00:58:20;;;;;;;7.88;5.63;;;4.90;99.90;;;;;;5038353;28;20706;-72
2023/10/18 01:00:48;;;;;;;5.38;4.88;;;5.00;99.90;;;;;;5036726;28;20316;-74
2023/10/18 01:03:28;;;;;;;7.65;6.28;;;5.00;99.90;;;;;;5038180;28;20251;-74
2023/10/18 01:06:04;;;;;;;8.13;6.45;;;4.90;99.90;;;;;;5038477;28;20200;-74
2023/10/18 01:08:32;;;;;;;7.63;5.97;;;4.90;99.90;;;;;;5038187;28;20208;-74
2023/10/18 01:11:04;;;;;;;9.15;5.50;;;4.80;99.90;;;;;;5038346;28;20274;-73
2023/10/18 01:13:34;;;;;;;6.60;6.00;;;4.90;99.90;;;;;;5036737;28;20551;-74
2023/10/18 01:16:06;;;;;;;7.30;5.95;;;4.80;99.90;;;;;;5037660;28;20215;-73
2023/10/18 01:18:34;;;;;;;11.48;6.75;;;4.80;99.90;;;;;;5038790;28;20219;-73
2023/10/18 01:21:13;;;;;;;7.53;6.10;;;4.80;99.90;;;;;;5037910;28;20552;-74
2023/10/18 01:23:49;;;;;;;7.18;5.93;;;4.70;99.90;;;;;;5037815;28;20200;-73
2023/10/18 01:26:18;;;;;;;7.20;6.45;;;4.70;99.90;;;;;;5037671;28;20216;-73
2023/10/18 01:28:47;;;;;;;10.07;6.53;;;4.80;99.90;;;;;;5038221;28;20235;-73
2023/10/18 01:31:15;;;;;;;10.80;7.57;;;4.90;99.90;;;;;;5037384;28;20288;-74
2023/10/18 01:33:45;;;;;;;6.80;5.20;;;4.90;99.90;;;;;;5036199;28;20274;-74
2023/10/18 01:36:14;;;;;;;5.13;4.63;;;4.90;99.90;;;;;;5037370;28;20640;-74
2023/10/18 01:38:43;;;;;;;10.07;7.38;;;5.00;99.90;;;;;;5037207;28;20224;-73
2023/10/18 01:41:16;;;;;;;8.35;5.55;;;5.00;99.90;;;;;;5037594;28;20302;-73
2023/10/18 01:43:47;;;;;;;7.93;6.25;;;5.10;99.90;;;;;;5037336;28;20278;-74
2023/10/18 01:46:15;;;;;;;8.80;5.85;;;5.10;99.90;;;;;;5036554;28;20847;-74
2023/10/18 01:48:46;;;;;;;9.07;7.32;;;5.20;99.90;;;;;;5037000;28;20279;-74
2023/10/18 01:51:13;;;;;;;6.15;5.55;;;5.20;99.90;;;;;;5036802;28;20285;-73
2023/10/18 01:53:42;;;;;;;6.30;5.72;;;5.10;99.90;;;;;;5037226;28;20634;-74
2023/10/18 01:56:10;;;;;;;10.48;6.60;;;5.00;99.90;;;;;;5036278;28;20309;-74
2023/10/18 01:58:37;;;;;;;7.72;6.93;;;5.00;99.90;;;;;;5036795;28;20794;-73
2023/10/18 02:01:09;;;;;;;7.75;5.50;;;5.00;99.90;;;;;;5037486;28;20204;-73
2023/10/18 02:03:38;;;;;;;6.53;5.93;;;5.00;99.90;;;;;;5036472;28;20196;-74
2023/10/18 02:06:06;;;;;;;7.47;6.78;;;4.90;99.90;;;;;;5036564;28;20211;-74
2023/10/18 02:08:34;;;;;;;7.60;6.50;;;4.90;99.90;;;;;;5037291;28;20200;-74
2023/10/18 02:11:01;;;;;;;6.60;6.00;;;4.80;99.90;;;;;;5037374;28;20219;-74
2023/10/18 02:13:28;;;;;;;10.10;6.53;;;4.80;99.90;;;;;;5037384;28;20329;-74
2023/10/18 02:15:56;;;;;;;7.22;6.50;;;4.60;99.90;;;;;;5036512;28;20218;-73
2023/10/18 02:18:27;;;;;;;6.03;5.43;;;4.70;99.90;;;;;;5036419;28;20537;-74
2023/10/18 02:20:55;;;;;;;6.50;5.40;;;4.60;99.90;;;;;;5037060;28;20208;-74
2023/10/18 02:23:26;;;;;;;6.45;5.85;;;4.60;99.90;;;;;;5036521;28;20594;-73
2023/10/18 02:25:54;;;;;;;8.25;6.32;;;4.60;99.90;;;;;;5036828;28;20206;-74
2023/10/18 02:28:25;;;;;;;6.13;5.55;;;4.80;99.90;;;;;;5036534;28;20200;-74
2023/10/18 02:30:58;;;;;;;7.90;6.78;;;4.70;99.90;;;;;;5037258;28;20216;-74
2023/10/18 02:33:36;;;;;;;6.95;5.63;;;4.70;99.90;;;;;;5037102;28;20274;-74
2023/10/18 02:36:07;;;;;;;6.47;5.78;;;4.70;99.90;;;;;;5035772;28;20841;-74
2023/10/18 02:38:35;;;;;;;7.78;5.63;;;4.70;99.90;;;;;;5036722;28;20240;-74
2023/10/18 02:41:14;;;;;;;7.88;6.90;;;4.80;99.90;;;;;;5035408;28;20201;-74
2023/10/18 02:43:45;;;;;;;7.85;6.15;;;4.80;99.90;;;;;;5036825;28;20209;-74
2023/10/18 02:46:16;;;;;;;8.13;6.22;;;4.70;99.90;;;;;;5036317;28;20201;-74
2023/10/18 02:48:47;;;;;;;9.68;6.10;;;4.70;99.90;;;;;;5036020;28;20217;-74
2023/10/18 02:51:15;;;;;;;7.50;6.68;;;4.70;99.90;;;;;;5036587;28;20362;-74
2023/10/18 02:53:42;;;;;;;7.78;6.43;;;4.80;99.90;;;;;;5035938;28;20200;-74
2023/10/18 02:56:17;;;;;;;8.05;7.35;;;4.80;99.90;;;;;;5035885;28;20597;-74
2023/10/18 02:58:43;;;;;;;9.75;5.90;;;4.80;99.90;;;;;;5036675;28;20231;-73
2023/10/18 03:01:14;;;;;;;7.95;5.90;;;4.70;99.90;;;;;;5035627;28;20203;-74
2023/10/18 03:03:46;;;;;;;7.40;6.30;;;4.80;99.90;;;;;;5036798;28;20232;-74
2023/10/18 03:06:14;;;;;;;8.23;7.40;;;4.90;99.90;;;;;;5035247;28;20653;-74
2023/10/18 03:08:42;;;;;;;9.57;7.10;;;4.90;99.90;;;;;;5038914;28;21589;-74
2023/10/18 03:11:11;;;;;;;9.23;5.60;;;4.90;99.90;;;;;;5040287;28;20337;-74
2023/10/18 03:13:38;;;;;;;7.50;6.80;;;5.00;99.90;;;;;;5039977;28;20344;-73
2023/10/18 03:16:06;;;;;;;8.90;6.75;;;5.00;99.90;;;;;;5039405;28;20232;-74
2023/10/18 03:18:36;;;;;;;7.82;6.43;;;5.10;99.90;;;;;;5039824;28;20307;-74
2023/10/18 03:21:08;;;;;;;9.07;6.00;;;5.10;99.90;;;;;;5039934;28;20565;-74
2023/10/18 03:23:44;;;;;;;8.40;6.15;;;5.00;99.90;;;;;;5039867;28;20283;-75
2023/10/18 03:26:11;;;;;;;7.40;5.22;;;4.90;99.90;;;;;;5039390;28;20196;-74
2023/10/18 03:28:40;;;;;;;7.22;5.75;;;4.80;99.90;;;;;;5040263;28;20212;-74
2023/10/18 03:31:21;;;;;;;7.60;5.88;;;4.90;99.90;;;;;;5038438;28;20203;-74
2023/10/18 03:33:53;;;;;;;6.63;6.03;;;4.90;99.90;;;;;;5039312;28;20204;-74
2023/10/18 03:36:21;;;;;;;8.35;7.50;;;5.00;99.90;;;;;;5038874;28;20204;-75
2023/10/18 03:38:54;;;;;;;7.57;6.65;;;5.00;99.90;;;;;;5039082;28;20232;-74
2023/10/18 03:41:25;;;;;;;9.30;7.13;;;5.00;99.90;;;;;;5038506;28;20196;-74
2023/10/18 03:43:58;;;;;;;8.18;6.10;;;5.00;99.90;;;;;;5039602;28;20200;-75
2023/10/18 03:46:38;;;;;;;10.13;7.80;;;5.00;99.90;;;;;;5039712;28;20568;-75
2023/10/18 03:49:08;;;;;;;7.47;6.72;;;4.90;99.90;;;;;;5040386;28;20273;-74
2023/10/18 03:51:36;;;;;;;12.18;8.20;;;4.90;99.90;;;;;;5039478;28;20228;-74
2023/10/18 03:54:05;;;;;;;8.20;7.00;;;4.80;99.90;;;;;;5038581;28;20200;-74
2023/10/18 03:56:36;;;;;;;7.60;6.78;;;4.70;99.90;;;;;;5039243;28;20219;-74
2023/10/18 03:59:10;;;;;;;7.95;7.18;;;4.80;99.90;;;;;;5039894;28;20232;-74
2023/10/18 04:01:42;;;;;;;10.50;7.78;;;4.70;99.90;;;;;;5039044;28;20212;-74
2023/10/18 04:04:17;;;;;;;6.68;5.93;;;4.70;99.90;;;;;;5037392;28;20255;-75
2023/10/18 04:06:44;;;;;;;6.97;6.20;;;4.70;99.90;;;;;;5038310;28;20211;-75
2023/10/18 04:09:16;;;;;;;13.75;10.10;;;4.80;99.90;;;;;;5038080;28;20735;-76
2023/10/18 04:11:43;;;;;;;7.97;7.18;;;4.80;99.90;;;;;;5037632;28;20201;-73
2023/10/18 04:14:16;;;;;;;9.65;7.25;;;4.90;99.90;;;;;;5037497;28;20271;-74
2023/10/18 04:16:43;;;;;;;7.70;6.80;;;4.90;99.90;;;;;;5037685;28;20227;-74
2023/10/18 04:19:10;;;;;;;9.13;7.88;;;4.80;99.90;;;;;;5038224;28;20236;-73
2023/10/18 04:21:38;;;;;;;9.25;8.45;;;4.70;99.90;;;;;;5038765;28;20662;-73
2023/10/18 04:24:05;;;;;;;9.10;6.80;;;4.70;99.90;;;;;;5038483;28;20660;-73
2023/10/18 04:26:33;;;;;;;7.63;6.18;;;4.70;99.90;;;;;;5038381;28;20607;-73
2023/10/18 04:29:10;;;;;;;7.68;6.88;;;4.70;99.90;;;;;;5038731;28;20200;-73
2023/10/18 04:31:37;;;;;;;8.50;7.70;;;4.60;99.90;;;;;;5038480;28;20229;-74
2023/10/18 04:34:05;;;;;;;9.70;7.05;;;4.70;99.90;;;;;;5038100;28;20433;-73
2023/10/18 04:36:34;;;;;;;9.05;7.20;;;4.80;99.90;;;;;;5036880;28;20212;-73
2023/10/18 04:39:05;;;;;;;10.52;8.82;;;4.90;99.90;;;;;;5037493;28;20239;-73
2023/10/18 04:41:34;;;;;;;11.52;8.52;;;4.90;99.90;;;;;;5037748;28;20196;-73
2023/10/18 04:44:05;;;;;;;11.40;7.70;;;4.80;99.90;;;;;;5037789;28;20207;-78
2023/10/18 04:46:32;;;;;;;8.32;7.05;;;4.80;99.90;;;;;;5035880;28;20776;-70
2023/10/18 04:49:16;;;;;;;9.02;7.93;;;4.70;99.90;;;;;;5037292;28;21361;-71
2023/10/18 04:51:48;;;;;;;9.82;8.32;;;4.60;99.90;;;;;;5039402;28;20223;-72
2023/10/18 04:54:23;;;;;;;9.75;7.30;;;4.60;99.90;;;;;;5037990;28;20201;-72
2023/10/18 04:56:56;;;;;;;10.07;9.02;;;4.50;99.90;;;;;;5038254;28;20196;-72
2023/10/18 04:59:29;;;;;;;8.98;7.25;;;4.70;99.90;;;;;;5038629;28;20229;-72
2023/10/18 05:01:58;;;;;;;10.70;7.95;;;4.80;99.90;;;;;;5038528;28;20192;-72
2023/10/18 05:04:29;;;;;;;12.65;9.25;;;4.90;99.90;;;;;;5038008;28;21273;-72
2023/10/18 05:06:56;;;;;;;11.48;8.57;;;5.10;99.90;;;;;;5037319;28;20816;-72
2023/10/18 05:09:34;;;;;;;11.43;8.85;;;5.10;99.90;;;;;;5038204;28;20689;-72
2023/10/18 05:12:07;;;;;;;11.02;7.38;;;5.00;99.90;;;;;;5036455;28;20204;-72
2023/10/18 05:14:40;;;;;;;9.32;8.13;;;4.90;99.90;;;;;;5037845;28;20204;-74
2023/10/18 05:17:11;;;;;;;8.18;7.38;;;4.90;99.90;;;;;;5037810;28;20235;-73
2023/10/18 05:19:41;;;;;;;14.55;8.90;;;4.90;99.90;;;;;;5037597;28;20236;-73
2023/10/18 05:22:16;;;;;;;9.55;8.50;;;5.00;99.90;;;;;;5038492;28;20334;-74
2023/10/18 05:24:43;;;;;;;6.90;6.22;;;5.00;99.90;;;;;;5037988;28;20196;-73
2023/10/18 05:27:24;;;;;;;8.60;7.75;;;5.10;99.90;;;;;;5036961;28;20207;-73
2023/10/18 05:29:52;;;;;;;11.65;8.85;;;5.10;99.90;;;;;;5036919;28;20200;-72
2023/10/18 05:32:39;;;;;;;9.75;7.00;;;5.10;99.90;;;;;;5036458;28;20216;-71
2023/10/18 05:38:06;;;;;;;9.00;7.35;;;5.00;99.90;;;;;;5036958;28;20220;-72
2023/10/18 05:40:46;;;;;;;9.68;8.15;;;5.00;99.90;;;;;;5037818;28;20315;-71
2023/10/18 05:43:22;;;;;;;12.55;7.65;;;5.10;99.90;;;;;;5037432;28;20732;-72
2023/10/18 05:45:50;;;;;;;11.73;9.88;;;5.10;99.90;;;;;;5037721;28;20635;-72
2023/10/18 05:48:18;;;;;;;9.98;8.20;;;5.20;99.90;;;;;;5037593;28;20208;-72
2023/10/18 05:50:49;;;;;;;11.75;8.98;;;5.10;99.90;;;;;;5037269;28;20669;-72
2023/10/18 05:53:18;;;;;;;17.67;10.88;;;5.20;99.90;;;;;;5037792;28;20205;-72
2023/10/18 05:55:52;;;;;;;10.82;8.52;;;5.10;99.90;;;;;;5037845;28;20628;-72
2023/10/18 05:58:26;;;;;;;10.88;8.60;;;5.30;99.90;;;;;;5036967;28;20228;-72
2023/10/18 06:00:55;;;;;;;17.92;12.10;;;5.20;99.90;;;;;;5037379;28;20458;-72
2023/10/18 06:03:25;;;;;;;15.43;9.90;;;5.10;99.90;;;;;;5036631;28;20251;-72
2023/10/18 06:05:53;;;;;;;11.60;8.55;;;5.20;99.90;;;;;;5035819;28;20227;-72
2023/10/18 06:08:22;;;;;;;10.25;8.32;;;5.40;99.90;;;;;;5030057;28;20211;-72
2023/10/18 06:10:50;;;;;;;8.77;7.80;;;5.40;99.90;;;;;;5035899;28;20286;-71
2023/10/18 06:13:21;;;;;;;9.73;8.10;;;5.40;99.90;;;;;;5036044;28;20199;-71
2023/10/18 06:15:51;;;;;;;9.40;8.10;;;5.40;99.90;;;;;;5035642;28;20208;-71
2023/10/18 06:18:26;;;;;;;9.95;7.47;;;5.40;99.90;;;;;;5036107;28;21325;-72
2023/10/18 06:20:58;;;;;;;15.98;9.70;;;5.40;99.90;;;;;;5036675;28;20199;-71
2023/10/18 06:26:30;;;;;;;11.05;9.50;;;5.60;99.90;;;;;;5016401;28;20319;-71
2023/10/18 06:29:01;;;;;;;10.65;7.53;;;5.70;99.90;;;;;;5037105;28;20250;-71
2023/10/18 06:31:30;;;;;;;15.07;9.60;;;5.70;99.90;;;;;;5035880;28;20205;-71
2023/10/18 06:33:59;;;;;;;15.02;10.68;;;5.80;99.90;;;;;;5036468;28;20562;-71
2023/10/18 06:36:26;;;;;;;10.13;7.50;;;5.90;99.90;;;;;;5034622;28;20200;-73
2023/10/18 06:38:53;;;;;;;11.38;7.72;;;5.90;99.90;;;;;;5036552;28;20945;-73
2023/10/18 06:41:21;;;;;;;13.00;10.50;;;5.90;99.90;;;;;;5036305;28;20259;-73
2023/10/18 06:43:49;;;;;;;12.40;8.65;;;5.90;99.90;;;;;;5036181;28;20203;-73
2023/10/18 06:46:26;;;;;;;10.50;8.68;;;6.00;99.90;;;;;;5034312;28;20218;-73
2023/10/18 06:48:55;;;;;;;10.10;8.77;;;6.00;99.90;;;;;;5035539;28;20218;-73
2023/10/18 06:51:33;;;;;;;14.60;8.32;;;6.10;99.90;;;;;;5035987;28;20207;-73
2023/10/18 06:54:03;;;;;;;9.77;8.82;;;6.10;99.90;;;;;;5036366;28;20208;-73
2023/10/18 06:56:32;;;;;;;8.40;7.15;;;6.10;99.90;;;;;;5035209;28;20206;-73
2023/10/18 06:59:06;;;;;;;9.98;8.15;;;6.20;99.90;;;;;;5035123;28;20366;-73
2023/10/18 07:01:34;;;;;;;9.88;8.10;;;6.30;99.90;;;;;;5034938;28;20203;-73
2023/10/18 07:04:04;;;;;;;16.50;10.30;;;6.40;99.90;;;;;;5036311;28;20211;-74
2023/10/18 07:06:35;;;;;;;12.95;9.45;;;6.50;99.90;;;;;;5035548;28;20405;-74
2023/10/18 07:09:09;;;;;;;13.48;10.20;;;6.40;99.90;;;;;;5035938;28;20203;-74
2023/10/18 07:11:39;;;;;;;12.35;8.77;;;6.40;99.90;;;;;;5035365;28;20211;-73
2023/10/18 07:14:06;;;;;;;12.30;9.95;;;6.50;99.90;;;;;;5035373;28;20196;-73
2023/10/18 07:16:38;;;;;;;14.02;9.68;;;6.50;99.90;;;;;;5034934;28;20283;-74
2023/10/18 07:19:21;;;;;;;11.40;8.80;;;6.70;99.90;;;;;;5035023;28;21735;-74
2023/10/18 07:21:48;;;;;;;9.68;7.35;;;6.80;99.90;;;;;;5035978;28;20299;-74
2023/10/18 07:24:17;;;;;;;13.43;8.80;;;6.80;99.90;;;;;;5034813;28;20215;-74
2023/10/18 07:26:46;;;;;;;13.45;8.82;;;6.80;99.90;;;;;;5035222;28;20693;-74
2023/10/18 07:29:13;;;;;;;10.25;8.43;;;6.80;99.90;;;;;;5035042;28;20667;-73
2023/10/18 07:31:44;;;;;;;9.88;8.88;;;6.80;99.90;;;;;;5035537;28;20212;-73
2023/10/18 07:34:18;;;;;;;12.43;9.45;;;6.70;99.90;;;;;;5035281;28;20604;-73
2023/10/18 07:36:45;;;;;;;11.93;9.18;;;6.70;99.90;;;;;;5034236;28;20208;-74
2023/10/18 07:39:12;;;;;;;10.18;8.88;;;6.80;99.90;;;;;;5035138;28;20369;-74
2023/10/18 07:41:40;;;;;;;10.45;8.30;;;6.90;99.90;;;;;;5034988;28;21011;-74
2023/10/18 07:44:07;;;;;;;12.27;9.45;;;7.00;99.90;;;;;;5035405;28;20283;-74
2023/10/18 07:46:39;;;;;;;12.02;8.77;;;7.00;99.90;;;;;;5034758;28;20203;-74
2023/10/18 07:49:11;;;;;;;10.48;9.23;;;7.00;99.90;;;;;;5032794;28;20201;-74
2023/10/18 07:51:43;;;;;;;12.73;8.73;;;7.10;99.90;;;;;;5034265;28;20239;-74
2023/10/18 07:54:10;;;;;;;13.05;8.52;;;7.20;99.90;;;;;;5034071;28;20212;-74
2023/10/18 07:56:40;;;;;;;10.95;8.32;;;7.20;99.90;;;;;;5038421;28;20219;-74
2023/10/18 08:02:07;;;;;;;11.55;9.35;;;7.40;99.80;;;;;;5037882;28;20388;-73
2023/10/18 08:04:36;;;;;;;11.80;7.97;;;7.40;99.90;;;;;;5038921;28;20326;-74
2023/10/18 08:07:04;;;;;;;12.65;9.18;;;7.70;99.90;;;;;;5038052;28;20201;-74
2023/10/18 08:09:31;;;;;;;15.32;9.55;;;7.80;99.90;;;;;;5038859;28;20207;-73
2023/10/18 08:12:05;;;;;;;11.13;8.70;;;7.90;99.90;;;;;;5039388;28;20228;-73
2023/10/18 08:14:33;;;;;;;12.65;10.48;;;7.90;99.80;;;;;;5037639;28;20685;-73
2023/10/18 08:17:08;;;;;;;10.13;9.00;;;8.20;99.70;;;;;;5038390;28;20204;-74
2023/10/18 08:19:43;;;;;;;13.90;10.87;;;8.40;99.50;;;;;;5039154;28;20752;-74
2023/10/18 08:22:24;;;;;;;16.13;10.70;;;8.50;99.10;;;;;;5039184;28;20630;-74
2023/10/18 08:24:51;;;;;;;12.03;9.67;;;8.70;98.70;;;;;;5037765;28;20725;-74
2023/10/18 08:27:18;;;;;;;12.63;9.30;;;8.80;98.00;;;;;;5038075;28;20627;-73
2023/10/18 08:29:47;;;;;;;12.67;9.47;;;8.80;97.80;;;;;;5038587;28;20625;-74
2023/10/18 08:32:16;;;;;;;14.53;10.57;;;8.80;97.60;;;;;;5039038;28;20626;-74
2023/10/18 08:34:44;;;;;;;10.53;8.63;;;8.80;97.50;;;;;;5038328;28;20630;-74
2023/10/18 08:37:13;;;;;;;10.77;8.10;;;9.00;97.60;;;;;;5037440;28;20623;-74
2023/10/18 08:39:41;;;;;;;13.13;9.13;;;9.00;97.50;;;;;;5037909;28;20679;-74
2023/10/18 08:42:11;;;;;;;9.87;8.50;;;9.00;97.10;;;;;;5038958;28;20659;-74
2023/10/18 08:44:39;;;;;;;13.60;10.40;;;9.10;96.90;;;;;;5038168;28;20719;-74
2023/10/18 08:47:14;;;;;;;22.23;9.83;;;9.10;96.90;;;;;;5038436;28;20641;-74
2023/10/18 08:49:50;;;;;;;13.93;9.50;;;9.20;97.10;;;;;;5037458;28;20637;-74
2023/10/18 08:52:21;;;;;;;8.50;7.47;;;9.20;96.50;;;;;;5037954;28;20653;-73
2023/10/18 08:54:49;;;;;;;11.60;8.37;;;9.40;96.10;;;;;;5039248;28;20740;-74
2023/10/18 08:57:24;;;;;;;15.90;10.10;;;9.40;96.10;;;;;;5037636;28;20627;-73
2023/10/18 08:59:52;;;;;;;10.70;8.70;;;9.40;95.70;;;;;;5037923;28;21253;-74
2023/10/18 09:02:21;;;;;;;10.40;8.03;;;9.50;95.70;;;;;;5037556;28;20963;-74
2023/10/18 09:04:52;;;;;;;11.73;8.43;;;9.60;95.50;;;;;;5036249;28;20641;-74
2023/10/18 09:07:21;;;;;;;9.90;8.50;;;9.60;95.70;;;;;;5036931;28;20630;-74
2023/10/18 09:09:57;;;;;;;11.23;9.20;;;9.70;95.70;;;;;;5038080;28;20638;-74
2023/10/18 09:15:29;;;;;;;11.80;9.30;;;9.90;95.50;;;;;;5036166;28;20650;-74
2023/10/18 09:17:56;;;;;;;11.10;8.70;;;10.00;94.90;;;;;;5036870;28;20756;-74
2023/10/18 09:20:26;;;;;;;8.33;7.53;;;10.10;94.40;;;;;;5037280;28;20674;-73
2023/10/18 09:22:54;;;;;;;10.20;8.30;;;10.20;93.80;;;;;;5037005;28;20637;-73
2023/10/18 09:25:24;;;;;;;11.63;8.00;;;10.30;94.10;;;;;;5036585;28;21225;-74
2023/10/18 09:27:51;;;;;;;10.30;9.37;;;10.40;93.50;;;;;;5036846;28;20679;-74
2023/10/18 09:30:20;;;;;;;10.67;7.50;;;10.50;93.20;;;;;;5037063;28;20674;-74
2023/10/18 09:32:49;;;;;;;8.67;7.03;;;10.60;92.60;;;;;;5037433;28;20630;-73
2023/10/18 09:35:25;;;;;;;8.40;7.60;;;10.60;92.80;;;;;;5037283;28;21253;-74
2023/10/18 09:37:54;;;;;;;8.47;7.20;;;10.50;92.70;;;;;;5036516;28;21063;-74
2023/10/18 09:40:21;;;;;;;8.73;7.47;;;10.50;92.70;;;;;;5036269;28;20687;-74
2023/10/18 09:42:50;;;;;;;9.03;7.30;;;10.50;92.50;;;;;;5036605;28;21205;-74
2023/10/18 09:45:20;;;;;;;12.33;8.70;;;10.60;92.80;;;;;;5036973;28;21273;-73
2023/10/18 09:47:47;;;;;;;11.40;8.07;;;10.70;92.70;;;;;;5036505;28;20638;-72
2023/10/18 09:50:23;;;;;;;12.00;8.83;;;10.70;92.70;;;;;;5035902;28;20730;-72
2023/10/18 09:52:56;;;;;;;8.33;7.43;;;10.70;92.80;;;;;;5036832;28;20631;-72
2023/10/18 09:55:28;;;;;;;10.77;7.53;;;10.80;92.90;;;;;;5036789;28;20630;-71
2023/10/18 09:58:04;;;;;;;8.73;7.90;;;10.80;93.00;;;;;;5036527;28;21178;-72
2023/10/18 10:00:33;;;;;;;7.80;6.90;;;10.90;93.10;;;;;;5036543;28;20768;-71
2023/10/18 10:03:08;;;;;;;8.40;7.43;;;10.90;92.40;;;;;;5036420;28;20638;-72
2023/10/18 10:05:41;;;;;;;10.60;7.83;;;10.90;92.60;;;;;;5036647;28;20729;-72
2023/10/18 10:08:09;;;;;;;10.47;6.73;;;11.00;92.30;;;;;;5036709;28;20642;-72
2023/10/18 10:10:46;;;;;;;7.07;6.37;;;11.10;91.70;;;;;;5037089;28;21203;-72
2023/10/18 10:13:18;;;;;;;9.23;6.90;;;11.10;91.60;;;;;;5035936;28;21203;-72
2023/10/18 10:15:54;;;;;;;10.87;8.07;;;11.10;91.20;;;;;;5034654;28;20637;-72
2023/10/18 10:18:25;;;;;;;7.10;6.27;;;11.10;91.70;;;;;;5034762;28;20642;-70
2023/10/18 10:20:54;;;;;;;12.50;7.27;;;11.10;91.50;;;;;;5035851;28;20650;-75
2023/10/18 10:23:21;;;;;;;7.90;6.70;;;11.20;91.80;;;;;;5034830;28;21347;-72
2023/10/18 10:26:11;;;;;;;9.10;7.20;;;11.30;91.50;;;;;;5035371;28;20629;-75
2023/10/18 10:31:50;;;;;;;8.53;7.30;;;11.60;91.80;;;;;;5000719;28;20720;-75
2023/10/18 10:34:19;;;;;;;9.30;7.13;;;11.80;91.10;;;;;;5036375;28;20645;-75
2023/10/18 10:36:47;;;;;;;9.60;7.37;;;11.80;91.10;;;;;;5035420;28;20637;-76
2023/10/18 10:39:23;;;;;;;7.47;6.70;;;11.90;91.30;;;;;;5036219;28;20626;-74
2023/10/18 10:41:53;;;;;;;11.50;8.37;;;12.00;91.10;;;;;;5036365;28;20729;-74
2023/10/18 10:44:30;;;;;;;9.47;6.70;;;12.10;91.00;;;;;;5035753;28;20627;-73
2023/10/18 10:47:29;;;;;;;8.33;6.80;;;12.10;90.50;;;;;;5036030;28;20630;-72
2023/10/18 10:49:59;;;;;;;8.53;7.27;;;12.20;91.50;;;;;;5036398;28;20633;-74
2023/10/18 10:52:30;;;;;;;10.47;6.50;;;12.30;91.40;;;;;;5035820;28;20639;-74
2023/10/18 10:55:17;;;;;;;8.53;6.40;;;12.30;90.90;;;;;;5035090;28;20623;-74
2023/10/18 10:57:46;;;;;;;8.40;7.47;;;12.30;90.90;;;;;;5035235;28;20629;-74
2023/10/18 11:03:28;;;;;;;10.20;7.87;;;12.50;91.00;;;;;;5034948;28;20685;-73
2023/10/18 11:05:58;;;;;;;9.87;6.33;;;12.70;91.00;;;;;;5035810;28;20627;-73
2023/10/18 11:08:26;;;;;;;8.13;6.20;;;12.80;90.50;;;;;;5035681;28;20694;-73
2023/10/18 11:10:54;;;;;;;7.83;5.80;;;13.00;90.00;;;;;;5035763;28;20678;-73
2023/10/18 11:13:24;;;;;;;7.97;5.57;;;13.00;88.80;;;;;;5035602;28;20634;-73
2023/10/18 11:15:52;;;;;;;7.50;6.33;;;13.10;89.40;;;;;;5035731;28;20647;-73
2023/10/18 11:18:22;;;;;;;6.63;5.50;;;13.10;89.20;;;;;;5035577;28;20630;-72
2023/10/18 11:20:51;;;;;;;6.83;5.37;;;13.10;90.10;;;;;;5035766;28;20704;-72
2023/10/18 11:23:20;;;;;;;6.83;5.20;;;13.30;89.30;;;;;;5035463;28;20749;-72
2023/10/18 11:25:47;;;;;;;6.53;5.10;;;13.30;87.40;;;;;;5036239;28;20634;-73
2023/10/18 11:28:20;;;;;;;5.17;4.67;;;13.30;87.90;;;;;;5034818;28;21214;-73
2023/10/18 11:30:49;;;;;;;7.93;5.97;;;13.20;86.80;;;;;;5039292;28;21347;-72
2023/10/18 11:33:17;;;;;;;5.93;5.07;;;13.20;87.50;;;;;;5039286;28;20636;-72
2023/10/18 11:35:48;;;;;;;5.97;5.40;;;13.30;86.70;;;;;;5039200;28;21204;-72
2023/10/18 11:38:19;;;;;;;5.43;4.80;;;13.40;86.90;;;;;;5038984;28;20998;-72
2023/10/18 11:40:50;;;;;;;7.27;5.07;;;13.40;85.70;;;;;;5039087;28;20698;-72
2023/10/18 11:43:24;;;;;;;6.70;5.30;;;13.50;86.20;;;;;;5038850;28;20623;-72
2023/10/18 11:46:05;;;;;;;10.03;5.00;;;13.60;86.00;;;;;;5039266;28;20649;-72
2023/10/18 11:48:35;;;;;;;8.63;5.23;;;13.70;85.50;;;;;;5039442;28;20777;-72
2023/10/18 11:51:06;;;;;;;6.37;5.20;;;13.70;85.30;;;;;;5038302;28;21486;-72
2023/10/18 11:53:33;;;;;;;5.03;4.30;;;13.80;85.50;;;;;;5039384;28;20709;-72
2023/10/18 11:56:01;;;;;;;4.40;4.00;;;13.80;85.40;;;;;;5038672;28;20629;-72
2023/10/18 11:58:30;;;;;;;5.37;4.87;;;13.90;86.10;;;;;;5039347;28;20666;-72
2023/10/18 12:01:00;;;;;;;5.20;4.53;;;14.00;84.80;;;;;;5038744;28;21022;-73
2023/10/18 12:03:28;;;;;;;4.90;4.50;;;14.10;84.80;;;;;;5037986;28;20630;-72
2023/10/18 12:05:56;;;;;;;4.80;3.87;;;14.10;83.60;;;;;;5039390;28;20649;-72
2023/10/18 12:08:24;;;;;;;5.80;5.20;;;14.10;82.40;;;;;;5037987;28;20622;-72
2023/10/18 12:10:52;;;;;;;4.90;4.33;;;14.10;84.40;;;;;;5038005;28;21209;-72
2023/10/18 12:13:20;;;;;;;7.00;4.23;;;14.10;84.90;;;;;;5039138;28;20715;-72
2023/10/18 12:15:47;;;;;;;5.50;4.83;;;14.20;84.50;;;;;;5038647;28;20622;-72
2023/10/18 12:18:15;;;;;;;4.30;3.87;;;14.20;83.50;;;;;;5037495;28;20643;-73
2023/10/18 12:20:44;;;;;;;4.00;3.33;;;14.20;83.70;;;;;;5038322;28;20674;-74
2023/10/18 12:23:13;;;;;;;4.93;4.10;;;14.20;83.70;;;;;;5038991;28;20734;-73
2023/10/18 12:25:42;;;;;;;4.77;4.37;;;14.30;81.80;;;;;;5039044;28;20627;-73
2023/10/18 12:28:12;;;;;;;5.10;4.50;;;14.20;82.30;;;;;;5038608;28;21232;-73
2023/10/18 12:30:41;;;;;;;5.33;4.37;;;14.30;81.70;;;;;;5037559;28;20630;-73
2023/10/18 12:33:14;;;;;;;4.90;3.80;;;14.20;81.80;;;;;;5038501;28;20677;-73
2023/10/18 12:35:42;;;;;;;5.43;3.93;;;14.20;82.20;;;;;;5038819;28;20626;-73
2023/10/18 12:38:14;;;;;;;4.40;3.90;;;14.20;82.10;;;;;;5037923;28;20633;-73
2023/10/18 12:40:51;;;;;;;3.90;3.60;;;14.20;81.60;;;;;;5037538;28;20917;-73
2023/10/18 12:43:19;;;;;;;4.90;4.40;;;14.20;81.00;;;;;;5038326;28;20641;-73
2023/10/18 12:45:50;;;;;;;4.07;3.67;;;14.20;80.90;;;;;;5037947;28;20656;-73
2023/10/18 12:48:22;;;;;;;6.67;4.53;;;14.20;81.70;;;;;;5037365;28;20630;-73
2023/10/18 12:50:51;;;;;;;5.43;4.17;;;14.10;82.20;;;;;;5036962;28;20984;-73
2023/10/18 12:53:36;;;;;;;4.57;4.17;;;14.10;81.70;;;;;;5037965;28;20959;-73
2023/10/18 12:58:54;;;;;;;3.67;3.37;;;14.00;81.90;;;;;;5038034;28;20642;-73
2023/10/18 13:01:22;;;;;;;6.37;3.30;;;14.00;82.60;;;;;;5037267;28;20711;-73
2023/10/18 13:03:57;;;;;;;3.23;2.87;;;14.00;81.70;;;;;;5036531;28;20617;-73
2023/10/18 13:06:30;;;;;;;4.03;3.67;;;14.00;81.50;;;;;;5037705;28;21037;-73
2023/10/18 13:09:15;;;;;;;3.07;2.67;;;14.00;81.20;;;;;;5037953;28;20649;-73
2023/10/18 13:11:46;;;;;;;5.43;2.60;;;14.00;81.60;;;;;;5037901;28;20995;-73
2023/10/18 13:14:14;;;;;;;3.43;2.97;;;13.90;82.00;;;;;;5037549;28;20659;-73
2023/10/18 13:16:42;;;;;;;5.17;4.20;;;14.00;81.80;;;;;;5037383;28;20660;-73
2023/10/18 13:19:10;;;;;;;5.20;3.60;;;14.00;81.00;;;;;;5037048;28;21282;-73
2023/10/18 13:21:39;;;;;;;5.87;4.03;;;14.10;80.60;;;;;;5037874;28;20675;-73
2023/10/18 13:24:17;;;;;;;3.83;3.50;;;14.10;81.60;;;;;;5037501;28;20634;-73
2023/10/18 13:26:44;;;;;;;3.70;3.30;;;14.10;80.70;;;;;;5036471;28;20637;-73
2023/10/18 13:29:16;;;;;;;3.50;2.70;;;14.10;81.20;;;;;;5037810;28;20664;-73